Дата Пункты Температура Давл., мм. Влажн., % Ветер Погодные явления
Воздуха Воды Направл. Скорость
15.12.14 01:00 Одесса 5.0 5.0 764 89 Ю 3 14 часов
15.12.14 10:00 Одесса 6.0 5.0 765 65 Ю-З 2 11 часов
15.12.14 07:00 Одесса 2.0 5.0 765 85 С 1 08 часов
15.12.14 04:00 Одесса 2.0 5.0 765 94 Ю-З 1 05 часов
15.12.14 01:00 Одесса 2.0 5.0 765 97 Ю-З 1 02 часа
14.12.14 10:00 Одесса 4.0 5.0 765 97 Ю 1 23 часа
14.12.14 07:00 Одесса 5.0 5.0 765 97 Ю 2 20 часов
14.12.14 04:00 Одесса 5.0 5.0 765 100 Ю-З 2 17 часов
14.12.14 01:00 Одесса 8.0 5.0 765 80 Ю-З 2 14 часов
14.12.14 10:00 Одесса 8.0 5.0 765 82 Ю-З 3 11 часов
14.12.14 07:00 Одесса 5.0 5.0 765 93 Ю-З 3 08 часов
14.12.14 04:00 Одесса 4.0 5.0 764 99 Ю-З 3 05 часов
14.12.14 01:00 Одесса 5.0 5.0 764 97 Ю-З 4 02 часа
13.12.14 10:00 Одесса 5.0 5.0 765 97 Ю-З 3 23 часа
13.12.14 07:00 Одесса 6.0 5.0 765 80 Ю-З 3 20 часов
13.12.14 04:00 Одесса 6.0 5.0 764 85 Ю-З 4 17 часов
13.12.14 01:00 Одесса 9.0 5.0 764 70 Ю-З 3 14 часов
13.12.14 10:00 Одесса 7.0 4.0 765 85 Ю 3 11 часов
13.12.14 07:00 Одесса 3.0 4.0 765 91 Ю-З 2 08 часов
13.12.14 04:00 Одесса 1.0 3.0 764 98 Ю-З 2 05 часов
Количество строк
331 332 333 334 335 336 337 338 339 340
Page 339 of 373